Latest Coastal Weather Observations for Aireys Inlet

IDV60701

Issued at 6:21 am EST Monday 16 September 2019 (issued every 10 minutes, with the page automatically refreshed every 10 minutes)

About coastal observations | Map of coastal stations | Coastal observations for VIC | Marine services | Other Formats
Station Details ID: 090180 Name: AIREYS INLET Lat: -38.46 Lon: 144.09 Height: 105.0 m
Data from the previous 72 hours. | See also: Recent months at Aireys Inlet
Date/Time
EST
Wind Sea
Height
m
Swell Vis
km
Cloud Weather Temp
°C
Press
hPa
Rain since
9am
mm
Dir  Spd
kts
Gust
kts
Height
m
Period
s
Dir
16/06:00am WSW 10 13 - - - - - - - 7.8 - 14.2
16/05:30am WSW 12 17 - - - - - - - 8.3 - 14.2
16/05:00am WSW 11 15 - - - - - - - 8.3 - 14.2
16/04:30am W 6 9 - - - - - - - 8.2 - 14.2
16/04:00am WNW 7 9 - - - - - - - 8.3 - 14.2
16/03:30am WNW 9 12 - - - - - - - 8.4 - 14.2
16/03:00am WNW 8 11 - - - - - - - 8.6 - 14.2
16/02:30am WNW 10 13 - - - - - - - 9.1 - 14.2
16/02:00am W 9 14 - - - - - - - 9.2 - 14.2
16/01:30am W 8 11 - - - - - - - 9.6 - 14.2
16/01:00am W 10 22 - - - - - - - 9.7 - 14.2
16/12:51am W 10 23 - - - - - - - 9.8 - 14.2
16/12:30am W 6 9 - - - - - - - 9.7 - 14.2
16/12:00am WNW 4 5 - - - - - - - 9.8 - 14.2
 
Date/Time
EST
Wind Sea
Height
m
Swell Vis
km
Cloud Weather Temp
°C
Press
hPa
Rain since
9am
mm
Dir  Spd
kts
Gust
kts
Height
m
Period
s
Dir
15/11:30pm WNW 4 5 - - - - - - - 10.4 - 14.2
15/11:00pm SW 6 12 - - - - - - - 10.5 - 14.2
15/10:30pm SW 7 11 - - - - - - - 10.7 - 13.6
15/10:00pm SW 10 16 - - - - - - - 10.5 - 11.4
15/09:30pm SW 7 11 - - - - - - - 11.0 - 10.4
15/09:00pm SSW 8 13 - - - - - - Rain 11.6 - 7.2
15/08:30pm SSW 10 19 - - - - - - - 12.2 - 6.4
15/08:00pm WNW 7 13 - - - - - - - 14.1 - 6.4
15/07:30pm WNW 13 23 - - - - - - - 14.1 - 6.4
15/07:16pm NW 17 28 - - - - - - - 14.0 - 6.4
15/07:00pm NW 16 25 - - - - - - - 14.1 - 6.4
15/06:30pm NW 19 28 - - - - - - - 14.3 - 6.0
15/06:01pm WNW 15 26 - - - - - - - 14.4 - 4.2
15/06:00pm WNW 14 26 - - - - - - Rain 14.4 - 4.0
15/05:30pm WNW 12 20 - - - - - - - 14.9 - 2.6
15/05:00pm NW 11 17 - - - - - - - 15.3 - 2.4
15/04:30pm NW 14 23 - - - - - - - 15.0 - 2.2
15/04:00pm NNW 16 22 - - - - - - - 14.4 - 2.2
15/03:30pm NW 15 26 - - - - - - - 14.9 - 1.0
15/03:03pm WNW 16 27 - - - - - - - 15.9 - 0.4
15/03:00pm WNW 17 27 - - - - - - Rain 16.0 - 0.4
15/02:48pm WNW 15 27 - - - - - - - 17.8 - 0.2
15/02:30pm NW 14 23 - - - - - - - 19.8 - 0.2
15/02:00pm NNW 15 22 - - - - - - - 19.3 - 0.2
15/01:30pm NNW 11 17 - - - - - - - 19.6 - 0.2
15/01:00pm N 8 13 - - - - - - - 18.7 - 0.2
15/12:30pm NW 10 20 - - - - - - - 17.3 - 0.0
15/12:00pm WNW 11 17 - - - - - - - 17.8 - 0.0
15/11:30am NW 8 17 - - - - - - - 16.7 - 0.0
15/11:00am WNW 9 14 - - - - - - - 16.2 - 0.0
15/10:30am NW 12 19 - - - - - - - 17.5 - 0.0
15/10:00am NNW 10 15 - - - - - - - 17.3 - 0.0
15/09:30am NW 10 14 - - - - - - - 16.3 - 0.0
15/09:00am NNW 10 15 - - - - - - - 15.4 - 0.0
15/08:30am NNW 9 16 - - - - - - - 15.0 - 0.0
15/08:00am NNW 11 16 - - - - - - - 14.7 - 0.0
15/07:30am NNW 9 13 - - - - - - - 13.9 - 0.0
15/07:00am N 10 13 - - - - - - - 14.1 - 0.0
15/06:30am N 8 13 - - - - - - - 14.1 - 0.0
15/06:00am NNW 13 18 - - - - - - - 14.2 - 0.0
15/05:30am NW 14 18 - - - - - - - 14.4 - 0.0
15/05:00am NW 15 19 - - - - - - - 14.6 - 0.0
15/04:30am NW 15 20 - - - - - - - 14.4 - 0.0
15/04:00am NNW 13 18 - - - - - - - 14.3 - 0.0
15/03:30am NNW 7 12 - - - - - - - 14.2 - 0.0
15/03:00am NNW 9 15 - - - - - - - 14.0 - 0.0
15/02:30am NW 11 15 - - - - - - - 14.3 - 0.0
15/02:00am NNW 9 13 - - - - - - - 14.3 - 0.0
15/01:30am NW 10 15 - - - - - - - 14.4 - 0.0
15/01:00am NW 15 22 - - - - - - - 14.7 - 0.0
15/12:30am NW 17 24 - - - - - - - 14.9 - 0.0
15/12:00am NW 12 20 - - - - - - - 14.4 - 0.0
 
Date/Time
EST
Wind Sea
Height
m
Swell Vis
km
Cloud Weather Temp
°C
Press
hPa
Rain since
9am
mm
Dir  Spd
kts
Gust
kts
Height
m
Period
s
Dir
14/11:30pm NW 8 14 - - - - - - - 14.7 - 0.0
14/11:00pm NW 11 19 - - - - - - - 15.0 - 0.0
14/10:30pm NW 14 20 - - - - - - - 15.3 - 0.0
14/10:06pm NW 17 27 - - - - - - - 15.5 - 0.0
14/10:00pm NW 18 27 - - - - - - - 15.6 - 0.0
14/09:30pm NW 18 28 - - - - - - - 16.0 - 0.0
14/09:01pm NW 19 29 - - - - - - - 16.2 - 0.0
14/09:00pm NW 20 29 - - - - - - - 16.2 - 0.0
14/08:30pm NW 19 30 - - - - - - - 16.5 - 0.0
14/08:01pm NW 15 25 - - - - - - - 16.8 - 0.0
14/08:00pm NW 16 25 - - - - - - - 16.8 - 0.0
14/07:56pm NW 15 25 - - - - - - - 16.8 - 0.0
14/07:53pm NW 15 23 - - - - - - - 16.9 - 0.0
14/07:30pm NNW 4 11 - - - - - - - 16.6 - 0.0
14/07:00pm WNW 7 16 - - - - - - - 16.3 - 0.0
14/06:30pm N 5 11 - - - - - - - 15.8 - 0.0
14/06:00pm NW 6 10 - - - - - - - 15.9 - 0.0
14/05:30pm NW 7 13 - - - - - - - 16.5 - 0.0
14/05:00pm NNW 13 19 - - - - - - - 17.0 - 0.0
14/04:30pm NNW 10 17 - - - - - - - 17.4 - 0.0
14/04:00pm NNW 8 12 - - - - - - - 17.8 - 0.0
14/03:30pm NW 5 10 - - - - - - - 18.0 - 0.0
14/03:00pm WSW 3 8 - - - - - - - 17.8 - 0.0
14/02:30pm WNW 6 12 - - - - - - - 17.8 - 0.0
14/02:00pm WNW 7 13 - - - - - - - 17.2 - 0.0
14/01:30pm NE 5 11 - - - - - - - 16.5 - 0.0
14/01:00pm E 8 11 - - - - - - - 14.5 - 0.0
14/12:30pm E 7 10 - - - - - - - 14.8 - 0.0
14/12:00pm E 5 9 - - - - - - - 14.3 - 0.0
14/11:30am N 7 11 - - - - - - - 14.8 - 0.0
14/11:00am NW 4 9 - - - - - - - 14.9 - 0.0
14/10:30am N 7 10 - - - - - - - 13.6 - 0.0
14/10:00am NNW 6 10 - - - - - - - 12.6 - 0.0
14/09:30am NNW 5 10 - - - - - - - 11.9 - 0.0
14/09:00am NNW 5 9 - - - - - - - 11.4 - 0.0
14/08:30am WNW 6 8 - - - - - - - 9.9 - 0.0
14/08:00am NW 8 10 - - - - - - - 8.8 - 0.0
14/07:30am NW 7 9 - - - - - - - 7.5 - 0.0
14/07:00am NNW 6 8 - - - - - - - 6.7 - 0.0
14/06:30am NW 8 11 - - - - - - - 6.9 - 0.0
14/06:00am NW 7 9 - - - - - - - 7.2 - 0.0
14/05:30am NW 8 11 - - - - - - - 7.7 - 0.0
14/05:00am NW 8 10 - - - - - - - 8.0 - 0.0
14/04:30am WNW 7 9 - - - - - - - 8.8 - 0.0
14/04:00am WNW 6 8 - - - - - - - 8.8 - 0.0
14/03:30am WNW 7 11 - - - - - - - 9.3 - 0.0
14/03:00am WNW 7 10 - - - - - - - 9.1 - 0.0
14/02:30am WNW 7 9 - - - - - - - 9.2 - 0.0
14/02:00am WNW 8 9 - - - - - - - 9.3 - 0.0
14/01:30am WNW 9 11 - - - - - - - 9.9 - 0.0
14/01:00am WNW 6 7 - - - - - - - 10.4 - 0.0
14/12:30am WNW 7 10 - - - - - - - 10.8 - 0.0
14/12:00am W 6 9 - - - - - - - 11.0 - 0.0
 
Date/Time
EST
Wind Sea
Height
m
Swell Vis
km
Cloud Weather Temp
°C
Press
hPa
Rain since
9am
mm
Dir  Spd
kts
Gust
kts
Height
m
Period
s
Dir
13/11:30pm W 6 9 - - - - - - - 11.0 - 0.0
13/11:00pm W 8 13 - - - - - - - 11.0 - 0.0
13/10:30pm WSW 9 14 - - - - - - - 10.9 - 0.0
13/10:00pm W 7 11 - - - - - - - 11.1 - 0.0
13/09:30pm W 6 9 - - - - - - - 11.4 - 0.0
13/09:00pm WSW 8 12 - - - - - - - 11.7 - 0.0
13/08:30pm W 7 13 - - - - - - - 12.0 - 0.0
13/08:00pm WSW 9 14 - - - - - - - 12.4 - 0.0
13/07:40pm W 16 28 - - - - - - - 12.9 - 0.0
13/07:30pm W 12 23 - - - - - - - 12.9 - 0.0
13/07:00pm W 10 15 - - - - - - - 13.1 - 0.0
13/06:30pm W 10 14 - - - - - - - 12.7 - 0.0
13/06:00pm W 14 23 - - - - - - - 13.7 - 0.0
13/05:52pm W 15 23 - - - - - - - 14.1 - 0.0
13/05:30pm W 8 12 - - - - - - - 14.2 - 0.0
13/05:00pm WNW 11 15 - - - - - - - 13.7 - 0.0
13/04:30pm NW 11 15 - - - - - - - 14.4 - 0.0
13/04:00pm NW 15 25 - - - - - - - 14.8 - 0.0
13/03:43pm NW 16 27 - - - - - - - 14.8 - 0.0
13/03:30pm WNW 15 24 - - - - - - - 15.1 - 0.0
13/03:11pm NW 15 27 - - - - - - - 13.9 - 0.0
13/03:00pm WNW 11 25 - - - - - - - 14.2 - 0.0
13/02:30pm WNW 5 15 - - - - - - - 13.6 - 0.0
13/02:00pm NW 7 15 - - - - - - - 13.8 - 0.0
13/01:30pm WNW 7 14 - - - - - - - 11.4 - 0.0
13/01:00pm NW 7 13 - - - - - - - 10.8 - 0.0
13/12:30pm WNW 11 17 - - - - - - - 10.9 - 0.0
13/12:00pm WNW 9 15 - - - - - - - 10.9 - 0.0
13/11:30am NW 10 16 - - - - - - - 11.2 - 0.0
13/11:00am NW 16 23 - - - - - - - 11.7 - 0.0
13/10:30am W 14 23 - - - - - - - 11.1 - 0.0
13/10:00am WNW 11 17 - - - - - - - 10.7 - 0.0
13/09:30am NW 8 12 - - - - - - - 10.2 - 0.0
13/09:00am NNW 6 10 - - - - - - - 9.8 - 0.0
13/08:30am NW 3 6 - - - - - - - 9.3 - 0.0
13/08:00am W 6 8 - - - - - - - 8.5 - 0.0
13/07:30am NW 3 4 - - - - - - - 8.1 - 0.0
13/07:00am WNW 5 7 - - - - - - - 7.9 - 0.0
13/06:30am NW 4 5 - - - - - - - 7.3 - 0.0

Other formats

Comma delimited format used in spreadsheet applications
http://www.bom.gov.au/fwo/IDV60701/IDV60701.94846.axf

JavaScript Object Notation format (JSON) in row-major order
http://www.bom.gov.au/fwo/IDV60701/IDV60701.94846.json

Data quality

Most of these data are generated automatically and are frequently updated. Quality checks on data are not normally performed. It is possible for incorrect values to appear. Refer to information at About Latest Weather Observations and please check the disclaimer before using these data.